sensor_id;sensor_type;location;lat;lon;timestamp;P1;durP1;ratioP1;P2;durP2;ratioP2
6561;SDS011;3314;50.890;4.722;2023-02-28T00:01:00;11.8;;;3.7;;
6561;SDS011;3314;50.890;4.722;2023-02-28T00:02:59;12.0;;;3.7;;
6561;SDS011;3314;50.890;4.722;2023-02-28T00:05:01;14.1;;;3.6;;
6561;SDS011;3314;50.890;4.722;2023-02-28T00:07:01;9.4;;;3.7;;
6561;SDS011;3314;50.890;4.722;2023-02-28T00:09:00;11.8;;;3.7;;
6561;SDS011;3314;50.890;4.722;2023-02-28T00:11:01;16.4;;;4.0;;
6561;SDS011;3314;50.890;4.722;2023-02-28T00:13:01;9.9;;;3.9;;
6561;SDS011;3314;50.890;4.722;2023-02-28T00:15:02;11.3;;;3.4;;
6561;SDS011;3314;50.890;4.722;2023-02-28T00:17:01;15.4;;;3.6;;
6561;SDS011;3314;50.890;4.722;2023-02-28T00:18:51;11.0;;;3.6;;
6561;SDS011;3314;50.890;4.722;2023-02-28T00:20:51;13.9;;;3.9;;
6561;SDS011;3314;50.890;4.722;2023-02-28T00:22:51;9.2;;;3.0;;
6561;SDS011;3314;50.890;4.722;2023-02-28T00:24:51;10.7;;;3.7;;
6561;SDS011;3314;50.890;4.722;2023-02-28T00:26:51;11.9;;;3.4;;
6561;SDS011;3314;50.890;4.722;2023-02-28T00:28:53;11.2;;;3.8;;
6561;SDS011;3314;50.890;4.722;2023-02-28T00:30:52;12.4;;;2.9;;
6561;SDS011;3314;50.890;4.722;2023-02-28T00:32:52;11.8;;;3.3;;
6561;SDS011;3314;50.890;4.722;2023-02-28T00:34:52;10.4;;;3.1;;
6561;SDS011;3314;50.890;4.722;2023-02-28T00:36:51;10.0;;;3.5;;
6561;SDS011;3314;50.890;4.722;2023-02-28T00:38:51;9.9;;;3.6;;
6561;SDS011;3314;50.890;4.722;2023-02-28T00:40:51;11.2;;;3.1;;
6561;SDS011;3314;50.890;4.722;2023-02-28T00:42:51;14.8;;;3.6;;
6561;SDS011;3314;50.890;4.722;2023-02-28T00:44:50;14.9;;;3.9;;
6561;SDS011;3314;50.890;4.722;2023-02-28T00:46:50;11.5;;;3.5;;
6561;SDS011;3314;50.890;4.722;2023-02-28T00:48:50;11.6;;;3.7;;
6561;SDS011;3314;50.890;4.722;2023-02-28T00:50:49;14.8;;;4.1;;
6561;SDS011;3314;50.890;4.722;2023-02-28T00:52:49;16.0;;;3.6;;
6561;SDS011;3314;50.890;4.722;2023-02-28T00:54:49;10.7;;;3.4;;
6561;SDS011;3314;50.890;4.722;2023-02-28T00:56:48;15.0;;;4.1;;
6561;SDS011;3314;50.890;4.722;2023-02-28T00:58:48;10.1;;;3.7;;
6561;SDS011;3314;50.890;4.722;2023-02-28T01:00:49;17.0;;;4.2;;
6561;SDS011;3314;50.890;4.722;2023-02-28T01:02:49;14.8;;;4.1;;
6561;SDS011;3314;50.890;4.722;2023-02-28T01:04:49;13.0;;;3.9;;
6561;SDS011;3314;50.890;4.722;2023-02-28T01:06:49;11.2;;;4.1;;
6561;SDS011;3314;50.890;4.722;2023-02-28T01:08:38;12.4;;;4.3;;
6561;SDS011;3314;50.890;4.722;2023-02-28T01:10:38;13.0;;;4.0;;
6561;SDS011;3314;50.890;4.722;2023-02-28T01:12:38;11.3;;;4.0;;
6561;SDS011;3314;50.890;4.722;2023-02-28T01:14:38;17.5;;;4.6;;
6561;SDS011;3314;50.890;4.722;2023-02-28T01:16:37;9.6;;;3.4;;
6561;SDS011;3314;50.890;4.722;2023-02-28T01:18:37;12.1;;;4.0;;
6561;SDS011;3314;50.890;4.722;2023-02-28T01:20:37;11.9;;;4.0;;
6561;SDS011;3314;50.890;4.722;2023-02-28T01:22:37;12.1;;;4.1;;
6561;SDS011;3314;50.890;4.722;2023-02-28T01:24:37;12.7;;;4.0;;
6561;SDS011;3314;50.890;4.722;2023-02-28T01:26:36;9.9;;;3.6;;
6561;SDS011;3314;50.890;4.722;2023-02-28T01:28:36;12.3;;;3.7;;
6561;SDS011;3314;50.890;4.722;2023-02-28T01:30:36;10.9;;;3.8;;
6561;SDS011;3314;50.890;4.722;2023-02-28T01:32:36;13.0;;;3.9;;
6561;SDS011;3314;50.890;4.722;2023-02-28T01:34:36;11.7;;;3.8;;
6561;SDS011;3314;50.890;4.722;2023-02-28T01:36:36;13.1;;;4.1;;
6561;SDS011;3314;50.890;4.722;2023-02-28T01:38:36;13.2;;;4.1;;
6561;SDS011;3314;50.890;4.722;2023-02-28T01:40:36;11.1;;;3.6;;
6561;SDS011;3314;50.890;4.722;2023-02-28T01:42:35;11.1;;;4.4;;
6561;SDS011;3314;50.890;4.722;2023-02-28T01:45:14;13.2;;;4.2;;
6561;SDS011;3314;50.890;4.722;2023-02-28T01:46:28;13.3;;;3.9;;
6561;SDS011;3314;50.890;4.722;2023-02-28T01:48:29;13.8;;;4.0;;
6561;SDS011;3314;50.890;4.722;2023-02-28T01:50:31;11.1;;;3.3;;
6561;SDS011;3314;50.890;4.722;2023-02-28T01:52:32;12.5;;;3.8;;
6561;SDS011;3314;50.890;4.722;2023-02-28T01:54:33;12.6;;;3.8;;
6561;SDS011;3314;50.890;4.722;2023-02-28T01:56:33;14.0;;;3.9;;
6561;SDS011;3314;50.890;4.722;2023-02-28T01:58:35;10.9;;;4.0;;
6561;SDS011;3314;50.890;4.722;2023-02-28T02:00:26;16.7;;;4.0;;
6561;SDS011;3314;50.890;4.722;2023-02-28T02:02:26;18.1;;;4.4;;
6561;SDS011;3314;50.890;4.722;2023-02-28T02:04:27;11.7;;;4.0;;
6561;SDS011;3314;50.890;4.722;2023-02-28T02:06:34;9.5;;;3.1;;
6561;SDS011;3314;50.890;4.722;2023-02-28T02:08:23;9.2;;;3.5;;
6561;SDS011;3314;50.890;4.722;2023-02-28T02:10:26;12.1;;;3.6;;
6561;SDS011;3314;50.890;4.722;2023-02-28T02:12:27;16.7;;;3.6;;
6561;SDS011;3314;50.890;4.722;2023-02-28T02:14:31;12.9;;;2.7;;
6561;SDS011;3314;50.890;4.722;2023-02-28T02:16:26;9.8;;;3.6;;
6561;SDS011;3314;50.890;4.722;2023-02-28T02:18:30;9.2;;;3.1;;
6561;SDS011;3314;50.890;4.722;2023-02-28T02:25:04;13.1;;;3.9;;
6561;SDS011;3314;50.890;4.722;2023-02-28T02:26:26;10.4;;;3.5;;
6561;SDS011;3314;50.890;4.722;2023-02-28T02:28:25;16.9;;;3.7;;
6561;SDS011;3314;50.890;4.722;2023-02-28T02:30:26;10.3;;;3.6;;
6561;SDS011;3314;50.890;4.722;2023-02-28T02:32:21;12.5;;;3.5;;
6561;SDS011;3314;50.890;4.722;2023-02-28T02:34:27;11.2;;;3.5;;
6561;SDS011;3314;50.890;4.722;2023-02-28T02:36:18;14.2;;;3.7;;
6561;SDS011;3314;50.890;4.722;2023-02-28T02:38:23;13.1;;;4.0;;
6561;SDS011;3314;50.890;4.722;2023-02-28T02:40:14;10.5;;;3.4;;
6561;SDS011;3314;50.890;4.722;2023-02-28T02:42:17;11.3;;;4.4;;
6561;SDS011;3314;50.890;4.722;2023-02-28T02:44:20;9.7;;;3.3;;
6561;SDS011;3314;50.890;4.722;2023-02-28T02:46:24;13.4;;;3.9;;
6561;SDS011;3314;50.890;4.722;2023-02-28T02:48:15;12.5;;;4.0;;
6561;SDS011;3314;50.890;4.722;2023-02-28T02:50:17;13.1;;;3.6;;
6561;SDS011;3314;50.890;4.722;2023-02-28T02:52:20;9.9;;;3.0;;
6561;SDS011;3314;50.890;4.722;2023-02-28T02:54:11;12.4;;;3.7;;
6561;SDS011;3314;50.890;4.722;2023-02-28T02:56:12;13.7;;;4.8;;
6561;SDS011;3314;50.890;4.722;2023-02-28T02:58:14;10.2;;;3.7;;
6561;SDS011;3314;50.890;4.722;2023-02-28T03:00:16;16.8;;;4.7;;
6561;SDS011;3314;50.890;4.722;2023-02-28T03:02:17;11.1;;;4.5;;
6561;SDS011;3314;50.890;4.722;2023-02-28T03:04:18;9.6;;;3.8;;
6561;SDS011;3314;50.890;4.722;2023-02-28T03:06:07;10.1;;;3.5;;
6561;SDS011;3314;50.890;4.722;2023-02-28T03:08:06;13.4;;;3.7;;
6561;SDS011;3314;50.890;4.722;2023-02-28T03:10:25;10.7;;;3.4;;
6561;SDS011;3314;50.890;4.722;2023-02-28T03:12:14;11.2;;;3.8;;
6561;SDS011;3314;50.890;4.722;2023-02-28T03:14:25;10.8;;;3.7;;
6561;SDS011;3314;50.890;4.722;2023-02-28T03:16:11;12.0;;;4.4;;
6561;SDS011;3314;50.890;4.722;2023-02-28T03:18:14;9.3;;;3.6;;
6561;SDS011;3314;50.890;4.722;2023-02-28T03:20:09;11.1;;;3.7;;
6561;SDS011;3314;50.890;4.722;2023-02-28T03:22:14;12.6;;;4.5;;
6561;SDS011;3314;50.890;4.722;2023-02-28T03:24:05;13.0;;;4.0;;
6561;SDS011;3314;50.890;4.722;2023-02-28T03:26:07;11.2;;;3.9;;
6561;SDS011;3314;50.890;4.722;2023-02-28T03:28:12;14.2;;;4.0;;
6561;SDS011;3314;50.890;4.722;2023-02-28T03:30:06;13.9;;;4.0;;
6561;SDS011;3314;50.890;4.722;2023-02-28T03:32:13;11.9;;;4.8;;
6561;SDS011;3314;50.890;4.722;2023-02-28T03:34:05;12.9;;;4.0;;
6561;SDS011;3314;50.890;4.722;2023-02-28T03:36:07;10.6;;;3.8;;
6561;SDS011;3314;50.890;4.722;2023-02-28T03:38:09;11.9;;;4.5;;
6561;SDS011;3314;50.890;4.722;2023-02-28T03:39:59;10.6;;;3.6;;
6561;SDS011;3314;50.890;4.722;2023-02-28T03:42:01;10.4;;;4.0;;
6561;SDS011;3314;50.890;4.722;2023-02-28T03:44:03;15.5;;;4.7;;
6561;SDS011;3314;50.890;4.722;2023-02-28T03:46:05;15.5;;;4.4;;
6561;SDS011;3314;50.890;4.722;2023-02-28T03:47:57;12.6;;;4.3;;
6561;SDS011;3314;50.890;4.722;2023-02-28T03:49:57;17.3;;;4.9;;
6561;SDS011;3314;50.890;4.722;2023-02-28T03:51:59;11.6;;;4.8;;
6561;SDS011;3314;50.890;4.722;2023-02-28T03:54:02;13.0;;;4.2;;
6561;SDS011;3314;50.890;4.722;2023-02-28T03:55:57;14.7;;;4.0;;
6561;SDS011;3314;50.890;4.722;2023-02-28T03:57:59;11.0;;;4.1;;
6561;SDS011;3314;50.890;4.722;2023-02-28T04:00:02;12.8;;;3.6;;
6561;SDS011;3314;50.890;4.722;2023-02-28T04:01:52;10.2;;;3.6;;
6561;SDS011;3314;50.890;4.722;2023-02-28T04:03:52;12.6;;;4.3;;
6561;SDS011;3314;50.890;4.722;2023-02-28T04:05:52;12.9;;;3.7;;
6561;SDS011;3314;50.890;4.722;2023-02-28T04:07:53;12.0;;;3.9;;
6561;SDS011;3314;50.890;4.722;2023-02-28T04:09:53;13.9;;;4.4;;
6561;SDS011;3314;50.890;4.722;2023-02-28T04:11:52;17.5;;;4.9;;
6561;SDS011;3314;50.890;4.722;2023-02-28T04:13:52;14.3;;;4.9;;
6561;SDS011;3314;50.890;4.722;2023-02-28T04:15:52;11.6;;;4.9;;
6561;SDS011;3314;50.890;4.722;2023-02-28T04:17:51;10.7;;;3.9;;
6561;SDS011;3314;50.890;4.722;2023-02-28T04:19:51;13.4;;;4.3;;
6561;SDS011;3314;50.890;4.722;2023-02-28T04:21:51;13.4;;;4.5;;
6561;SDS011;3314;50.890;4.722;2023-02-28T04:23:51;13.7;;;4.3;;
6561;SDS011;3314;50.890;4.722;2023-02-28T04:25:54;9.9;;;4.1;;
6561;SDS011;3314;50.890;4.722;2023-02-28T04:27:54;10.4;;;4.1;;
6561;SDS011;3314;50.890;4.722;2023-02-28T04:29:54;14.3;;;5.3;;
6561;SDS011;3314;50.890;4.722;2023-02-28T04:31:43;13.5;;;4.8;;
6561;SDS011;3314;50.890;4.722;2023-02-28T04:33:43;11.3;;;4.3;;
6561;SDS011;3314;50.890;4.722;2023-02-28T04:35:43;12.6;;;4.2;;
6561;SDS011;3314;50.890;4.722;2023-02-28T04:37:42;15.9;;;4.3;;
6561;SDS011;3314;50.890;4.722;2023-02-28T04:39:42;11.3;;;5.2;;
6561;SDS011;3314;50.890;4.722;2023-02-28T04:41:42;20.0;;;4.9;;
6561;SDS011;3314;50.890;4.722;2023-02-28T04:43:42;11.3;;;4.1;;
6561;SDS011;3314;50.890;4.722;2023-02-28T04:45:41;12.0;;;4.3;;
6561;SDS011;3314;50.890;4.722;2023-02-28T04:47:41;15.4;;;5.2;;
6561;SDS011;3314;50.890;4.722;2023-02-28T04:49:41;11.8;;;4.2;;
6561;SDS011;3314;50.890;4.722;2023-02-28T04:51:41;14.9;;;5.3;;
6561;SDS011;3314;50.890;4.722;2023-02-28T04:53:41;17.0;;;4.6;;
6561;SDS011;3314;50.890;4.722;2023-02-28T04:55:41;12.3;;;4.9;;
6561;SDS011;3314;50.890;4.722;2023-02-28T04:57:42;15.2;;;4.1;;
6561;SDS011;3314;50.890;4.722;2023-02-28T04:59:42;17.6;;;5.0;;
6561;SDS011;3314;50.890;4.722;2023-02-28T05:01:44;16.2;;;5.1;;
6561;SDS011;3314;50.890;4.722;2023-02-28T05:03:44;13.2;;;5.2;;
6561;SDS011;3314;50.890;4.722;2023-02-28T05:05:34;18.3;;;6.3;;
6561;SDS011;3314;50.890;4.722;2023-02-28T05:07:34;12.7;;;4.9;;
6561;SDS011;3314;50.890;4.722;2023-02-28T05:09:33;15.1;;;5.1;;
6561;SDS011;3314;50.890;4.722;2023-02-28T05:11:35;12.7;;;4.8;;
6561;SDS011;3314;50.890;4.722;2023-02-28T05:13:35;15.3;;;5.7;;
6561;SDS011;3314;50.890;4.722;2023-02-28T05:15:34;11.0;;;4.8;;
6561;SDS011;3314;50.890;4.722;2023-02-28T05:17:34;10.4;;;4.4;;
6561;SDS011;3314;50.890;4.722;2023-02-28T05:19:34;19.7;;;4.9;;
6561;SDS011;3314;50.890;4.722;2023-02-28T05:21:35;21.4;;;6.1;;
6561;SDS011;3314;50.890;4.722;2023-02-28T05:23:35;12.9;;;5.8;;
6561;SDS011;3314;50.890;4.722;2023-02-28T05:25:34;15.3;;;5.3;;
6561;SDS011;3314;50.890;4.722;2023-02-28T05:27:34;14.3;;;4.9;;
6561;SDS011;3314;50.890;4.722;2023-02-28T05:29:34;13.9;;;5.3;;
6561;SDS011;3314;50.890;4.722;2023-02-28T05:31:34;13.1;;;5.8;;
6561;SDS011;3314;50.890;4.722;2023-02-28T05:33:34;15.6;;;5.1;;
6561;SDS011;3314;50.890;4.722;2023-02-28T05:35:33;14.0;;;5.1;;
6561;SDS011;3314;50.890;4.722;2023-02-28T05:37:25;15.3;;;5.0;;
6561;SDS011;3314;50.890;4.722;2023-02-28T05:39:25;13.1;;;5.4;;
6561;SDS011;3314;50.890;4.722;2023-02-28T05:41:24;16.1;;;5.5;;
6561;SDS011;3314;50.890;4.722;2023-02-28T05:43:24;14.0;;;5.1;;
6561;SDS011;3314;50.890;4.722;2023-02-28T05:45:24;14.5;;;4.3;;
6561;SDS011;3314;50.890;4.722;2023-02-28T05:47:23;15.3;;;5.5;;
6561;SDS011;3314;50.890;4.722;2023-02-28T05:49:23;13.7;;;5.2;;
6561;SDS011;3314;50.890;4.722;2023-02-28T05:51:23;13.7;;;5.2;;
6561;SDS011;3314;50.890;4.722;2023-02-28T05:53:22;14.8;;;5.5;;
6561;SDS011;3314;50.890;4.722;2023-02-28T05:55:22;18.2;;;6.2;;
6561;SDS011;3314;50.890;4.722;2023-02-28T05:57:22;22.3;;;6.4;;
6561;SDS011;3314;50.890;4.722;2023-02-28T05:59:22;14.7;;;6.0;;
6561;SDS011;3314;50.890;4.722;2023-02-28T06:01:22;19.2;;;5.9;;
6561;SDS011;3314;50.890;4.722;2023-02-28T06:03:22;14.9;;;5.1;;
6561;SDS011;3314;50.890;4.722;2023-02-28T06:05:22;20.2;;;6.3;;
6561;SDS011;3314;50.890;4.722;2023-02-28T06:07:23;11.7;;;4.5;;
6561;SDS011;3314;50.890;4.722;2023-02-28T06:09:23;17.5;;;6.6;;
6561;SDS011;3314;50.890;4.722;2023-02-28T06:11:27;12.1;;;4.8;;
6561;SDS011;3314;50.890;4.722;2023-02-28T06:13:15;12.3;;;4.7;;
6561;SDS011;3314;50.890;4.722;2023-02-28T06:15:15;14.1;;;6.1;;
6561;SDS011;3314;50.890;4.722;2023-02-28T06:17:15;16.1;;;5.9;;
6561;SDS011;3314;50.890;4.722;2023-02-28T06:19:15;21.1;;;6.0;;
6561;SDS011;3314;50.890;4.722;2023-02-28T06:21:15;13.7;;;5.4;;
6561;SDS011;3314;50.890;4.722;2023-02-28T06:23:15;14.9;;;5.5;;
6561;SDS011;3314;50.890;4.722;2023-02-28T06:25:14;12.0;;;5.0;;
6561;SDS011;3314;50.890;4.722;2023-02-28T06:27:14;14.6;;;5.8;;
6561;SDS011;3314;50.890;4.722;2023-02-28T06:29:17;12.2;;;4.8;;
6561;SDS011;3314;50.890;4.722;2023-02-28T06:31:17;27.7;;;6.2;;
6561;SDS011;3314;50.890;4.722;2023-02-28T06:33:17;13.0;;;5.3;;
6561;SDS011;3314;50.890;4.722;2023-02-28T06:35:16;16.2;;;5.9;;
6561;SDS011;3314;50.890;4.722;2023-02-28T06:37:16;14.0;;;5.7;;
6561;SDS011;3314;50.890;4.722;2023-02-28T06:39:16;19.3;;;6.3;;
6561;SDS011;3314;50.890;4.722;2023-02-28T06:41:16;13.2;;;5.4;;
6561;SDS011;3314;50.890;4.722;2023-02-28T06:43:15;13.4;;;5.5;;
6561;SDS011;3314;50.890;4.722;2023-02-28T06:45:15;16.3;;;6.1;;
6561;SDS011;3314;50.890;4.722;2023-02-28T06:47:14;16.8;;;6.2;;
6561;SDS011;3314;50.890;4.722;2023-02-28T06:49:14;14.4;;;5.9;;
6561;SDS011;3314;50.890;4.722;2023-02-28T06:51:15;23.9;;;6.2;;
6561;SDS011;3314;50.890;4.722;2023-02-28T06:53:04;15.4;;;5.4;;
6561;SDS011;3314;50.890;4.722;2023-02-28T06:55:05;19.1;;;5.8;;
6561;SDS011;3314;50.890;4.722;2023-02-28T06:57:05;14.7;;;5.3;;
6561;SDS011;3314;50.890;4.722;2023-02-28T06:59:04;18.4;;;7.2;;
6561;SDS011;3314;50.890;4.722;2023-02-28T07:01:04;14.7;;;5.4;;
6561;SDS011;3314;50.890;4.722;2023-02-28T07:03:04;15.5;;;6.1;;
6561;SDS011;3314;50.890;4.722;2023-02-28T07:05:04;16.5;;;5.8;;
6561;SDS011;3314;50.890;4.722;2023-02-28T07:07:04;14.8;;;5.6;;
6561;SDS011;3314;50.890;4.722;2023-02-28T07:09:04;20.9;;;6.6;;
6561;SDS011;3314;50.890;4.722;2023-02-28T07:11:04;16.7;;;5.9;;
6561;SDS011;3314;50.890;4.722;2023-02-28T07:13:04;19.2;;;6.6;;
6561;SDS011;3314;50.890;4.722;2023-02-28T07:15:05;19.8;;;6.2;;
6561;SDS011;3314;50.890;4.722;2023-02-28T07:17:06;14.7;;;5.6;;
6561;SDS011;3314;50.890;4.722;2023-02-28T07:19:06;16.5;;;6.3;;
6561;SDS011;3314;50.890;4.722;2023-02-28T07:21:07;14.5;;;5.6;;
6561;SDS011;3314;50.890;4.722;2023-02-28T07:22:56;14.5;;;6.6;;
6561;SDS011;3314;50.890;4.722;2023-02-28T07:24:56;15.9;;;5.5;;
6561;SDS011;3314;50.890;4.722;2023-02-28T07:26:56;14.9;;;5.7;;
6561;SDS011;3314;50.890;4.722;2023-02-28T07:28:56;21.8;;;6.1;;
6561;SDS011;3314;50.890;4.722;2023-02-28T07:30:55;17.4;;;6.6;;
6561;SDS011;3314;50.890;4.722;2023-02-28T07:32:56;12.5;;;4.8;;
6561;SDS011;3314;50.890;4.722;2023-02-28T07:34:56;22.3;;;6.0;;
6561;SDS011;3314;50.890;4.722;2023-02-28T07:36:55;16.9;;;6.1;;
6561;SDS011;3314;50.890;4.722;2023-02-28T07:38:55;15.2;;;5.2;;
6561;SDS011;3314;50.890;4.722;2023-02-28T07:40:55;15.0;;;5.2;;
6561;SDS011;3314;50.890;4.722;2023-02-28T07:42:54;21.9;;;6.3;;
6561;SDS011;3314;50.890;4.722;2023-02-28T07:44:54;13.4;;;5.0;;
6561;SDS011;3314;50.890;4.722;2023-02-28T07:46:54;16.6;;;5.3;;
6561;SDS011;3314;50.890;4.722;2023-02-28T07:48:55;16.3;;;5.6;;
6561;SDS011;3314;50.890;4.722;2023-02-28T07:50:55;13.0;;;5.2;;
6561;SDS011;3314;50.890;4.722;2023-02-28T07:52:55;17.4;;;5.9;;
6561;SDS011;3314;50.890;4.722;2023-02-28T07:54:55;14.5;;;4.9;;
6561;SDS011;3314;50.890;4.722;2023-02-28T07:56:54;12.7;;;5.3;;
6561;SDS011;3314;50.890;4.722;2023-02-28T07:58:54;13.0;;;5.1;;
6561;SDS011;3314;50.890;4.722;2023-02-28T08:00:54;22.2;;;4.7;;
6561;SDS011;3314;50.890;4.722;2023-02-28T08:02:53;14.5;;;5.0;;
6561;SDS011;3314;50.890;4.722;2023-02-28T08:04:53;13.7;;;5.1;;
6561;SDS011;3314;50.890;4.722;2023-02-28T08:06:53;16.1;;;5.6;;
6561;SDS011;3314;50.890;4.722;2023-02-28T08:08:53;14.0;;;5.5;;
6561;SDS011;3314;50.890;4.722;2023-02-28T08:10:42;12.7;;;4.4;;
6561;SDS011;3314;50.890;4.722;2023-02-28T08:12:42;13.3;;;5.0;;
6561;SDS011;3314;50.890;4.722;2023-02-28T08:14:42;11.9;;;4.6;;
6561;SDS011;3314;50.890;4.722;2023-02-28T08:16:43;10.4;;;3.9;;
6561;SDS011;3314;50.890;4.722;2023-02-28T08:18:43;11.2;;;3.9;;
6561;SDS011;3314;50.890;4.722;2023-02-28T08:20:42;9.4;;;3.7;;
6561;SDS011;3314;50.890;4.722;2023-02-28T08:22:42;13.7;;;4.1;;
6561;SDS011;3314;50.890;4.722;2023-02-28T08:24:42;19.5;;;4.9;;
6561;SDS011;3314;50.890;4.722;2023-02-28T08:26:42;13.4;;;4.3;;
6561;SDS011;3314;50.890;4.722;2023-02-28T08:28:42;11.7;;;4.0;;
6561;SDS011;3314;50.890;4.722;2023-02-28T08:30:42;13.9;;;4.2;;
6561;SDS011;3314;50.890;4.722;2023-02-28T08:32:41;14.8;;;4.1;;
6561;SDS011;3314;50.890;4.722;2023-02-28T08:34:41;14.2;;;4.1;;
6561;SDS011;3314;50.890;4.722;2023-02-28T08:36:41;11.2;;;3.9;;
6561;SDS011;3314;50.890;4.722;2023-02-28T08:38:41;11.0;;;3.9;;
6561;SDS011;3314;50.890;4.722;2023-02-28T08:40:41;8.8;;;3.3;;
6561;SDS011;3314;50.890;4.722;2023-02-28T08:42:40;10.5;;;3.3;;
6561;SDS011;3314;50.890;4.722;2023-02-28T08:44:40;14.4;;;3.5;;
6561;SDS011;3314;50.890;4.722;2023-02-28T08:46:40;11.4;;;4.0;;
6561;SDS011;3314;50.890;4.722;2023-02-28T08:48:40;9.8;;;3.1;;
6561;SDS011;3314;50.890;4.722;2023-02-28T08:50:39;12.7;;;3.4;;
6561;SDS011;3314;50.890;4.722;2023-02-28T08:52:39;10.2;;;2.9;;
6561;SDS011;3314;50.890;4.722;2023-02-28T08:54:41;11.8;;;3.4;;
6561;SDS011;3314;50.890;4.722;2023-02-28T08:56:31;11.6;;;3.3;;
6561;SDS011;3314;50.890;4.722;2023-02-28T08:58:30;12.7;;;3.4;;
6561;SDS011;3314;50.890;4.722;2023-02-28T09:00:30;14.3;;;3.4;;
6561;SDS011;3314;50.890;4.722;2023-02-28T09:02:30;12.3;;;4.4;;
6561;SDS011;3314;50.890;4.722;2023-02-28T09:04:31;14.6;;;3.2;;
6561;SDS011;3314;50.890;4.722;2023-02-28T09:06:30;9.4;;;3.3;;
6561;SDS011;3314;50.890;4.722;2023-02-28T09:08:31;11.3;;;3.6;;
6561;SDS011;3314;50.890;4.722;2023-02-28T09:10:31;11.5;;;3.3;;
6561;SDS011;3314;50.890;4.722;2023-02-28T09:12:32;10.4;;;3.8;;
6561;SDS011;3314;50.890;4.722;2023-02-28T09:14:32;9.7;;;2.8;;
6561;SDS011;3314;50.890;4.722;2023-02-28T09:16:32;9.3;;;2.8;;
6561;SDS011;3314;50.890;4.722;2023-02-28T09:18:33;9.3;;;2.9;;
6561;SDS011;3314;50.890;4.722;2023-02-28T09:20:33;8.0;;;2.2;;
6561;SDS011;3314;50.890;4.722;2023-02-28T09:22:33;9.6;;;3.5;;
6561;SDS011;3314;50.890;4.722;2023-02-28T09:24:32;12.0;;;2.8;;
6561;SDS011;3314;50.890;4.722;2023-02-28T09:26:32;9.2;;;2.7;;
6561;SDS011;3314;50.890;4.722;2023-02-28T09:28:32;8.6;;;2.8;;
6561;SDS011;3314;50.890;4.722;2023-02-28T09:30:31;10.4;;;3.2;;
6561;SDS011;3314;50.890;4.722;2023-02-28T09:32:32;9.7;;;2.5;;
6561;SDS011;3314;50.890;4.722;2023-02-28T09:34:21;10.4;;;2.8;;
6561;SDS011;3314;50.890;4.722;2023-02-28T09:36:21;11.0;;;3.0;;
6561;SDS011;3314;50.890;4.722;2023-02-28T09:38:20;9.2;;;2.7;;
6561;SDS011;3314;50.890;4.722;2023-02-28T09:40:20;10.8;;;2.9;;
6561;SDS011;3314;50.890;4.722;2023-02-28T09:42:23;9.1;;;2.2;;
6561;SDS011;3314;50.890;4.722;2023-02-28T09:44:27;7.7;;;2.5;;
6561;SDS011;3314;50.890;4.722;2023-02-28T09:46:29;10.0;;;3.0;;
6561;SDS011;3314;50.890;4.722;2023-02-28T09:48:21;9.5;;;2.5;;
6561;SDS011;3314;50.890;4.722;2023-02-28T09:52:29;10.1;;;2.5;;
6561;SDS011;3314;50.890;4.722;2023-02-28T09:52:41;9.0;;;2.6;;
6561;SDS011;3314;50.890;4.722;2023-02-28T09:54:20;8.2;;;2.5;;
6561;SDS011;3314;50.890;4.722;2023-02-28T09:56:21;9.8;;;2.1;;
6561;SDS011;3314;50.890;4.722;2023-02-28T09:58:23;9.3;;;2.4;;
6561;SDS011;3314;50.890;4.722;2023-02-28T10:00:17;9.1;;;1.8;;
6561;SDS011;3314;50.890;4.722;2023-02-28T10:02:23;7.2;;;1.8;;
6561;SDS011;3314;50.890;4.722;2023-02-28T10:04:23;10.2;;;2.3;;
6561;SDS011;3314;50.890;4.722;2023-02-28T10:06:16;10.2;;;2.2;;
6561;SDS011;3314;50.890;4.722;2023-02-28T10:08:18;8.2;;;2.5;;
6561;SDS011;3314;50.890;4.722;2023-02-28T10:10:21;10.0;;;2.4;;
6561;SDS011;3314;50.890;4.722;2023-02-28T10:12:12;7.4;;;1.6;;
6561;SDS011;3314;50.890;4.722;2023-02-28T10:14:15;7.1;;;1.5;;
6561;SDS011;3314;50.890;4.722;2023-02-28T10:16:16;11.1;;;1.9;;
6561;SDS011;3314;50.890;4.722;2023-02-28T10:18:19;8.2;;;1.9;;
6561;SDS011;3314;50.890;4.722;2023-02-28T10:20:12;8.0;;;1.7;;
6561;SDS011;3314;50.890;4.722;2023-02-28T10:22:14;9.0;;;2.3;;
6561;SDS011;3314;50.890;4.722;2023-02-28T10:24:19;8.5;;;2.0;;
6561;SDS011;3314;50.890;4.722;2023-02-28T10:26:09;9.1;;;2.1;;
6561;SDS011;3314;50.890;4.722;2023-02-28T10:28:11;7.7;;;2.2;;
6561;SDS011;3314;50.890;4.722;2023-02-28T10:30:11;8.5;;;1.8;;
6561;SDS011;3314;50.890;4.722;2023-02-28T10:32:12;8.1;;;1.9;;
6561;SDS011;3314;50.890;4.722;2023-02-28T10:34:13;8.8;;;1.7;;
6561;SDS011;3314;50.890;4.722;2023-02-28T10:36:14;7.8;;;1.6;;
6561;SDS011;3314;50.890;4.722;2023-02-28T10:38:16;8.3;;;1.8;;
6561;SDS011;3314;50.890;4.722;2023-02-28T10:40:07;10.0;;;2.4;;
6561;SDS011;3314;50.890;4.722;2023-02-28T10:42:20;8.6;;;2.1;;
6561;SDS011;3314;50.890;4.722;2023-02-28T10:44:19;7.4;;;1.6;;
6561;SDS011;3314;50.890;4.722;2023-02-28T10:46:11;7.4;;;2.0;;
6561;SDS011;3314;50.890;4.722;2023-02-28T10:48:26;7.9;;;1.6;;
6561;SDS011;3314;50.890;4.722;2023-02-28T10:50:03;7.7;;;1.9;;
6561;SDS011;3314;50.890;4.722;2023-02-28T10:52:03;6.9;;;1.5;;
6561;SDS011;3314;50.890;4.722;2023-02-28T10:54:04;8.7;;;1.7;;
6561;SDS011;3314;50.890;4.722;2023-02-28T10:56:04;8.7;;;1.9;;
6561;SDS011;3314;50.890;4.722;2023-02-28T10:58:08;7.6;;;1.8;;
6561;SDS011;3314;50.890;4.722;2023-02-28T11:00:12;9.8;;;2.3;;
6561;SDS011;3314;50.890;4.722;2023-02-28T11:02:00;8.0;;;1.9;;
6561;SDS011;3314;50.890;4.722;2023-02-28T11:04:00;7.3;;;1.6;;
6561;SDS011;3314;50.890;4.722;2023-02-28T11:06:05;8.3;;;1.5;;
6561;SDS011;3314;50.890;4.722;2023-02-28T11:08:06;7.4;;;1.3;;
6561;SDS011;3314;50.890;4.722;2023-02-28T11:09:58;7.6;;;1.7;;
6561;SDS011;3314;50.890;4.722;2023-02-28T11:11:58;8.0;;;1.8;;
6561;SDS011;3314;50.890;4.722;2023-02-28T11:14:02;7.5;;;2.0;;
6561;SDS011;3314;50.890;4.722;2023-02-28T11:16:03;9.1;;;1.9;;
6561;SDS011;3314;50.890;4.722;2023-02-28T11:18:06;6.9;;;1.6;;
6561;SDS011;3314;50.890;4.722;2023-02-28T11:19:57;10.2;;;2.0;;
6561;SDS011;3314;50.890;4.722;2023-02-28T11:21:57;10.6;;;2.4;;
6561;SDS011;3314;50.890;4.722;2023-02-28T11:23:59;8.1;;;1.8;;
6561;SDS011;3314;50.890;4.722;2023-02-28T11:26:01;9.9;;;2.1;;
6561;SDS011;3314;50.890;4.722;2023-02-28T11:28:03;8.6;;;1.7;;
6561;SDS011;3314;50.890;4.722;2023-02-28T11:30:11;9.3;;;1.8;;
6561;SDS011;3314;50.890;4.722;2023-02-28T11:32:02;7.8;;;1.6;;
6561;SDS011;3314;50.890;4.722;2023-02-28T11:34:11;7.0;;;1.5;;
6561;SDS011;3314;50.890;4.722;2023-02-28T11:36:00;7.6;;;1.6;;
6561;SDS011;3314;50.890;4.722;2023-02-28T11:38:00;9.1;;;1.8;;
6561;SDS011;3314;50.890;4.722;2023-02-28T11:40:00;7.9;;;1.7;;
6561;SDS011;3314;50.890;4.722;2023-02-28T11:42:07;6.9;;;1.6;;
6561;SDS011;3314;50.890;4.722;2023-02-28T11:44:00;7.7;;;1.5;;
6561;SDS011;3314;50.890;4.722;2023-02-28T11:45:55;7.2;;;1.3;;
6561;SDS011;3314;50.890;4.722;2023-02-28T11:47:52;10.1;;;1.8;;
6561;SDS011;3314;50.890;4.722;2023-02-28T11:49:57;7.5;;;1.7;;
6561;SDS011;3314;50.890;4.722;2023-02-28T11:51:51;7.0;;;1.5;;
6561;SDS011;3314;50.890;4.722;2023-02-28T11:54:00;10.2;;;1.9;;
6561;SDS011;3314;50.890;4.722;2023-02-28T11:55:50;7.0;;;1.5;;
6561;SDS011;3314;50.890;4.722;2023-02-28T11:57:55;7.5;;;1.5;;
6561;SDS011;3314;50.890;4.722;2023-02-28T11:59:58;7.3;;;1.6;;
6561;SDS011;3314;50.890;4.722;2023-02-28T12:01:54;8.8;;;1.7;;
6561;SDS011;3314;50.890;4.722;2023-02-28T12:03:53;6.5;;;1.3;;
6561;SDS011;3314;50.890;4.722;2023-02-28T12:05:58;9.0;;;2.1;;
6561;SDS011;3314;50.890;4.722;2023-02-28T12:07:50;7.3;;;1.8;;
6561;SDS011;3314;50.890;4.722;2023-02-28T12:09:55;6.9;;;1.5;;
6561;SDS011;3314;50.890;4.722;2023-02-28T12:11:48;7.1;;;1.6;;
6561;SDS011;3314;50.890;4.722;2023-02-28T12:13:52;8.3;;;1.9;;
6561;SDS011;3314;50.890;4.722;2023-02-28T12:15:54;8.1;;;1.8;;
6561;SDS011;3314;50.890;4.722;2023-02-28T12:17:50;6.9;;;1.6;;
6561;SDS011;3314;50.890;4.722;2023-02-28T12:19:52;7.6;;;1.5;;
6561;SDS011;3314;50.890;4.722;2023-02-28T12:21:48;7.4;;;1.6;;
6561;SDS011;3314;50.890;4.722;2023-02-28T12:23:56;8.9;;;1.8;;
6561;SDS011;3314;50.890;4.722;2023-02-28T12:25:49;7.4;;;1.8;;
6561;SDS011;3314;50.890;4.722;2023-02-28T12:27:51;6.9;;;1.9;;
6561;SDS011;3314;50.890;4.722;2023-02-28T12:29:42;8.4;;;1.6;;
6561;SDS011;3314;50.890;4.722;2023-02-28T12:31:45;6.8;;;1.4;;
6561;SDS011;3314;50.890;4.722;2023-02-28T12:33:50;8.9;;;2.1;;
6561;SDS011;3314;50.890;4.722;2023-02-28T12:35:41;8.4;;;1.7;;
6561;SDS011;3314;50.890;4.722;2023-02-28T12:37:45;8.8;;;1.8;;
6561;SDS011;3314;50.890;4.722;2023-02-28T12:39:47;7.8;;;1.7;;
6561;SDS011;3314;50.890;4.722;2023-02-28T12:41:48;8.5;;;1.8;;